createdAt,value
2019-02-19T00:00:01.952Z,10.30
2019-02-19T00:02:31.454Z,12.27
2019-02-19T00:05:00.431Z,14.33
2019-02-19T00:07:30.256Z,10.77
2019-02-19T00:09:59.989Z,14.13
2019-02-19T00:12:29.457Z,10.27
2019-02-19T00:14:58.276Z,10.97
2019-02-19T00:17:27.205Z,13.27
2019-02-19T00:19:56.717Z,11.37
2019-02-19T00:22:25.834Z,9.73
2019-02-19T00:24:54.896Z,8.90
2019-02-19T00:27:24.101Z,12.13
2019-02-19T00:29:53.626Z,10.20
2019-02-19T00:32:23.660Z,13.77
2019-02-19T00:34:52.831Z,8.63
2019-02-19T00:37:22.151Z,10.00
2019-02-19T00:39:51.299Z,8.27
2019-02-19T00:42:20.100Z,10.17
2019-02-19T00:44:49.518Z,7.90
2019-02-19T00:47:18.871Z,9.93
2019-02-19T00:49:48.287Z,9.40
2019-02-19T00:52:17.413Z,10.17
2019-02-19T00:54:50.436Z,12.40
2019-02-19T00:57:19.917Z,8.97
2019-02-19T00:59:50.177Z,8.53
2019-02-19T01:02:19.004Z,9.00
2019-02-19T01:04:49.841Z,8.70
2019-02-19T01:07:19.619Z,8.97
2019-02-19T01:09:49.579Z,10.43
2019-02-19T01:12:19.123Z,8.50
2019-02-19T01:14:49.833Z,13.77
2019-02-19T01:17:19.287Z,7.60
2019-02-19T01:19:48.978Z,8.80
2019-02-19T01:22:18.633Z,8.60
2019-02-19T01:24:47.732Z,7.97
2019-02-19T01:27:16.954Z,10.50
2019-02-19T01:29:46.560Z,10.20
2019-02-19T01:32:16.099Z,7.43
2019-02-19T01:34:45.337Z,9.57
2019-02-19T01:37:14.137Z,8.40
2019-02-19T01:39:43.407Z,7.13
2019-02-19T01:42:12.338Z,11.57
2019-02-19T01:44:41.754Z,10.37
2019-02-19T01:47:11.226Z,8.43
2019-02-19T01:49:40.336Z,8.93
2019-02-19T01:52:10.052Z,8.13
2019-02-19T01:54:39.552Z,8.00
2019-02-19T01:57:08.800Z,8.83
2019-02-19T01:59:38.181Z,6.57
2019-02-19T02:02:07.538Z,16.90
2019-02-19T02:04:37.362Z,6.23
2019-02-19T02:07:07.353Z,7.33
2019-02-19T02:09:36.735Z,8.83
2019-02-19T02:12:06.281Z,10.40
2019-02-19T02:14:36.170Z,8.57
2019-02-19T02:17:05.208Z,11.43
2019-02-19T02:19:34.420Z,8.70
2019-02-19T02:22:03.586Z,10.90
2019-02-19T02:24:32.743Z,8.00
2019-02-19T02:27:02.078Z,10.10
2019-02-19T02:29:31.108Z,9.87
2019-02-19T02:31:59.774Z,8.43
2019-02-19T02:34:29.257Z,9.87
2019-02-19T02:36:58.125Z,7.60
2019-02-19T02:39:27.344Z,9.90
2019-02-19T02:41:56.494Z,6.70
2019-02-19T02:44:25.891Z,9.50
2019-02-19T02:46:55.287Z,8.90
2019-02-19T02:49:24.643Z,10.50
2019-02-19T02:51:54.258Z,9.07
2019-02-19T02:54:23.552Z,11.80
2019-02-19T02:56:52.792Z,15.00
2019-02-19T02:59:22.234Z,11.07
2019-02-19T03:01:51.694Z,12.90
2019-02-19T03:04:20.930Z,8.67
2019-02-19T03:06:54.464Z,11.50
2019-02-19T03:09:23.426Z,14.00
2019-02-19T03:11:53.218Z,11.87
2019-02-19T03:14:22.813Z,9.97
2019-02-19T03:16:51.658Z,11.13
2019-02-19T03:19:21.076Z,14.37
2019-02-19T03:21:50.602Z,12.47
2019-02-19T03:24:19.763Z,10.90
2019-02-19T03:26:48.637Z,11.83
2019-02-19T03:29:18.638Z,10.20
2019-02-19T03:31:47.891Z,11.80
2019-02-19T03:34:17.183Z,11.13
2019-02-19T03:36:46.861Z,11.77
2019-02-19T03:39:15.990Z,16.30
2019-02-19T03:41:45.908Z,11.27
2019-02-19T03:44:15.024Z,14.53
2019-02-19T03:46:44.384Z,12.20
2019-02-19T03:49:13.897Z,13.53
2019-02-19T03:51:43.915Z,12.40
2019-02-19T03:54:13.944Z,14.23
2019-02-19T03:56:43.150Z,11.37
2019-02-19T03:59:12.992Z,10.43
2019-02-19T04:01:42.049Z,12.77
2019-02-19T04:04:11.181Z,11.00
2019-02-19T04:06:42.339Z,11.77
2019-02-19T04:09:11.868Z,10.83
2019-02-19T04:11:41.167Z,11.30
2019-02-19T04:14:10.885Z,12.60
2019-02-19T04:16:39.912Z,13.07
2019-02-19T04:19:09.712Z,13.13
2019-02-19T04:21:39.938Z,17.47
2019-02-19T04:24:09.369Z,10.73
2019-02-19T04:26:38.699Z,10.70
2019-02-19T04:29:08.260Z,13.30
2019-02-19T04:31:37.579Z,11.63
2019-02-19T04:34:06.790Z,12.30
2019-02-19T04:36:36.506Z,9.47
2019-02-19T04:39:06.025Z,10.77
2019-02-19T04:41:34.754Z,13.87
2019-02-19T04:44:04.063Z,10.47
2019-02-19T04:46:33.908Z,10.30
2019-02-19T04:49:03.030Z,13.10
2019-02-19T04:51:32.808Z,12.20
2019-02-19T04:54:01.809Z,14.00
2019-02-19T04:56:30.984Z,19.37
2019-02-19T04:59:00.972Z,22.93
2019-02-19T05:01:30.394Z,17.07
2019-02-19T05:03:59.690Z,13.73
2019-02-19T05:06:29.696Z,19.07
2019-02-19T05:08:58.894Z,18.83
2019-02-19T05:11:28.084Z,15.60
2019-02-19T05:13:57.477Z,12.23
2019-02-19T05:16:27.282Z,14.93
2019-02-19T05:18:56.156Z,16.60
2019-02-19T05:21:25.690Z,13.20
2019-02-19T05:23:56.434Z,13.33
2019-02-19T05:26:26.150Z,15.43
2019-02-19T05:28:56.041Z,15.40
2019-02-19T05:31:25.471Z,14.57
2019-02-19T05:33:54.745Z,14.90
2019-02-19T05:36:24.219Z,18.33
2019-02-19T05:38:53.687Z,16.90
2019-02-19T05:41:23.098Z,12.97
2019-02-19T05:43:54.044Z,14.27
2019-02-19T05:46:24.044Z,14.07
2019-02-19T05:48:53.540Z,16.10
2019-02-19T05:51:22.855Z,16.43
2019-02-19T05:53:52.491Z,15.57
2019-02-19T05:56:22.236Z,13.93
2019-02-19T05:58:51.448Z,17.17
2019-02-19T06:01:20.931Z,14.17
2019-02-19T06:03:50.238Z,14.47
2019-02-19T06:06:19.538Z,15.40
2019-02-19T06:08:48.670Z,16.00
2019-02-19T06:11:17.800Z,16.10
2019-02-19T06:13:47.373Z,16.60
2019-02-19T06:16:16.947Z,14.27
2019-02-19T06:18:45.770Z,16.90
2019-02-19T06:21:14.755Z,16.70
2019-02-19T06:23:44.602Z,17.47
2019-02-19T06:26:15.369Z,17.23
2019-02-19T06:28:45.505Z,16.13
2019-02-19T06:31:14.860Z,25.37
2019-02-19T06:33:44.442Z,16.10
2019-02-19T06:36:14.001Z,16.00
2019-02-19T06:38:43.229Z,14.97
2019-02-19T06:41:12.166Z,21.27
2019-02-19T06:43:41.566Z,14.67
2019-02-19T06:46:11.058Z,13.30
2019-02-19T06:48:40.462Z,18.03
2019-02-19T06:51:09.718Z,19.30
2019-02-19T06:53:38.954Z,15.37
2019-02-19T06:56:07.886Z,15.77
2019-02-19T06:58:37.315Z,14.33
2019-02-19T07:01:06.877Z,14.70
2019-02-19T07:03:37.622Z,16.30
2019-02-19T07:06:06.401Z,17.57
2019-02-19T07:08:35.736Z,12.80
2019-02-19T07:11:04.891Z,19.70
2019-02-19T07:13:34.133Z,17.83
2019-02-19T07:16:03.252Z,28.83
2019-02-19T07:18:33.355Z,21.57
2019-02-19T07:21:02.782Z,27.30
2019-02-19T07:23:33.175Z,30.20
2019-02-19T07:26:02.127Z,27.00
2019-02-19T07:28:31.711Z,25.00
2019-02-19T07:31:00.814Z,20.77
2019-02-19T07:33:31.156Z,27.13
2019-02-19T07:36:00.399Z,21.47
2019-02-19T07:38:29.333Z,18.97
2019-02-19T07:40:59.843Z,18.50
2019-02-19T07:43:29.978Z,19.87
2019-02-19T07:45:59.004Z,19.40
2019-02-19T07:48:28.363Z,19.77
2019-02-19T07:50:57.326Z,18.70
2019-02-19T07:53:27.249Z,24.63
2019-02-19T07:55:57.498Z,15.17
2019-02-19T07:58:26.692Z,21.33
2019-02-19T08:00:56.087Z,15.10
2019-02-19T08:03:25.566Z,20.67
2019-02-19T08:05:54.882Z,19.03
2019-02-19T08:08:24.050Z,20.47
2019-02-19T08:10:52.736Z,16.30
2019-02-19T08:13:22.126Z,18.47
2019-02-19T08:15:51.445Z,19.60
2019-02-19T08:18:20.661Z,17.63
2019-02-19T08:20:49.842Z,19.07
2019-02-19T08:23:19.101Z,16.40
2019-02-19T08:25:47.922Z,18.40
2019-02-19T08:28:16.789Z,19.83
2019-02-19T08:30:46.356Z,23.60
2019-02-19T08:33:15.863Z,19.10
2019-02-19T08:35:45.984Z,18.67
2019-02-19T08:38:14.709Z,15.77
2019-02-19T08:40:43.820Z,23.50
2019-02-19T08:43:13.271Z,18.00
2019-02-19T08:45:42.565Z,16.37
2019-02-19T08:48:11.475Z,16.47
2019-02-19T08:50:40.568Z,19.83
2019-02-19T08:53:09.640Z,15.97
2019-02-19T08:55:38.825Z,18.80
2019-02-19T08:58:08.042Z,20.40
2019-02-19T09:00:38.580Z,19.23
2019-02-19T09:03:07.732Z,18.70
2019-02-19T09:05:37.757Z,25.17
2019-02-19T09:08:07.286Z,22.60
2019-02-19T09:10:36.755Z,25.03
2019-02-19T09:13:05.816Z,22.83
2019-02-19T09:15:34.893Z,22.70
2019-02-19T09:18:03.614Z,19.67
2019-02-19T09:20:33.169Z,25.50
2019-02-19T09:23:02.233Z,22.03
2019-02-19T09:25:31.376Z,21.57
2019-02-19T09:28:00.510Z,27.60
2019-02-19T09:30:30.142Z,24.40
2019-02-19T09:32:58.995Z,19.33
2019-02-19T09:35:28.502Z,24.60
2019-02-19T09:37:57.398Z,24.60
2019-02-19T09:40:26.792Z,21.07
2019-02-19T09:42:55.739Z,21.27
2019-02-19T09:45:24.864Z,21.03
2019-02-19T09:48:00.941Z,26.37
2019-02-19T09:50:24.640Z,21.07
2019-02-19T09:52:59.731Z,22.90
2019-02-19T09:55:24.506Z,22.63
2019-02-19T09:57:54.222Z,26.37
2019-02-19T10:00:23.177Z,23.23
2019-02-19T10:02:51.885Z,20.90
2019-02-19T10:05:21.749Z,21.70
2019-02-19T10:07:51.378Z,33.13
2019-02-19T10:10:22.280Z,24.27
2019-02-19T10:12:52.262Z,18.40
2019-02-19T10:15:21.834Z,20.20
2019-02-19T10:17:51.382Z,22.67
2019-02-19T10:20:20.978Z,23.27
2019-02-19T10:22:50.088Z,21.67
2019-02-19T10:25:19.970Z,23.43
2019-02-19T10:27:49.438Z,24.17
2019-02-19T10:30:22.953Z,30.97
2019-02-19T10:32:51.890Z,27.80
2019-02-19T10:35:21.609Z,22.10
2019-02-19T10:37:51.840Z,20.50
2019-02-19T10:40:21.704Z,25.90
2019-02-19T10:42:50.601Z,24.83
2019-02-19T10:45:24.773Z,23.53
2019-02-19T10:47:54.363Z,27.13
2019-02-19T10:50:24.106Z,30.57
2019-02-19T10:52:53.730Z,26.83
2019-02-19T10:55:23.607Z,28.47
2019-02-19T10:57:53.068Z,27.00
2019-02-19T11:00:23.225Z,29.00
2019-02-19T11:02:52.866Z,26.40
2019-02-19T11:05:22.203Z,27.53
2019-02-19T11:07:51.592Z,21.70
2019-02-19T11:10:20.500Z,22.90
2019-02-19T11:12:49.847Z,24.80
2019-02-19T11:15:18.773Z,23.37
2019-02-19T11:17:48.133Z,26.07
2019-02-19T11:20:18.844Z,22.50
2019-02-19T11:22:48.165Z,19.73
2019-02-19T11:25:18.591Z,18.67
2019-02-19T11:27:47.521Z,19.57
2019-02-19T11:30:17.915Z,24.80
2019-02-19T11:32:47.593Z,23.33
2019-02-19T11:35:16.900Z,19.30
2019-02-19T11:37:46.308Z,16.97
2019-02-19T11:40:16.866Z,13.30
2019-02-19T11:42:45.932Z,13.57
2019-02-19T11:45:17.011Z,11.93
2019-02-19T11:47:46.177Z,11.53
2019-02-19T11:50:16.017Z,12.27
2019-02-19T11:52:45.194Z,13.57
2019-02-19T11:55:16.860Z,13.47
2019-02-19T11:57:46.776Z,12.43
2019-02-19T12:00:24.280Z,7.50
2019-02-19T12:02:53.950Z,7.27
2019-02-19T12:05:23.102Z,8.83
2019-02-19T12:07:53.801Z,5.80
2019-02-19T12:10:23.083Z,7.37
2019-02-19T12:12:53.090Z,8.10
2019-02-19T12:15:23.446Z,5.83
2019-02-19T12:17:53.722Z,6.53
2019-02-19T12:20:23.551Z,8.13
2019-02-19T12:22:52.548Z,8.50
2019-02-19T12:25:21.917Z,6.60
2019-02-19T12:27:51.246Z,7.63
2019-02-19T12:30:21.131Z,9.40
2019-02-19T12:32:50.728Z,5.27
2019-02-19T12:35:20.302Z,11.50
2019-02-19T12:37:49.855Z,6.50
2019-02-19T12:40:19.164Z,5.90
2019-02-19T12:42:48.231Z,5.03
2019-02-19T12:45:17.551Z,6.37
2019-02-19T12:47:46.658Z,8.90
2019-02-19T12:50:19.072Z,4.40
2019-02-19T12:52:47.975Z,6.90
2019-02-19T12:55:17.624Z,4.93
2019-02-19T12:57:46.516Z,7.27
2019-02-19T13:00:20.025Z,6.97
2019-02-19T13:02:49.279Z,6.40
2019-02-19T13:05:18.897Z,5.10
2019-02-19T13:07:48.086Z,5.33
2019-02-19T13:10:17.162Z,6.50
2019-02-19T13:12:46.427Z,4.67
2019-02-19T13:15:20.331Z,7.03
2019-02-19T13:17:49.574Z,4.00
2019-02-19T13:20:20.067Z,3.03
2019-02-19T13:22:49.349Z,5.50
2019-02-19T13:25:18.192Z,4.30
2019-02-19T13:27:47.658Z,5.00
2019-02-19T13:30:23.790Z,4.53
2019-02-19T13:32:53.774Z,6.53
2019-02-19T13:35:23.131Z,5.13
2019-02-19T13:37:52.098Z,3.20
2019-02-19T13:40:23.017Z,6.60
2019-02-19T13:42:51.991Z,6.00
2019-02-19T13:45:23.137Z,3.73
2019-02-19T13:47:52.518Z,6.80
2019-02-19T13:50:30.027Z,2.43
2019-02-19T13:53:04.110Z,2.33
2019-02-19T13:55:34.984Z,4.40
2019-02-19T13:58:04.246Z,2.57
2019-02-19T14:00:34.915Z,4.57
2019-02-19T14:03:05.420Z,3.13
2019-02-19T14:05:34.888Z,4.57
2019-02-19T14:08:04.076Z,2.60
2019-02-19T14:10:33.234Z,2.70
2019-02-19T14:13:02.123Z,2.23
2019-02-19T14:15:48.155Z,3.00
2019-02-19T14:18:22.225Z,2.10
2019-02-19T14:21:02.783Z,3.53
2019-02-19T14:23:36.306Z,1.97
2019-02-19T14:26:22.637Z,3.43
2019-02-19T14:29:02.678Z,3.70
2019-02-19T14:31:49.523Z,2.93
2019-02-19T14:34:36.884Z,1.90
2019-02-19T14:37:27.065Z,7.10
2019-02-19T14:40:14.613Z,3.07
2019-02-19T14:42:57.631Z,2.70
2019-02-19T14:45:37.792Z,2.80
2019-02-19T14:48:25.407Z,2.03
2019-02-19T14:51:05.289Z,2.93
2019-02-19T14:53:48.257Z,4.20
2019-02-19T14:56:22.461Z,11.93
2019-02-19T14:59:00.053Z,7.60
2019-02-19T15:01:32.584Z,2.10
2019-02-19T15:04:19.278Z,4.33
2019-02-19T15:06:56.108Z,5.30
2019-02-19T15:09:44.834Z,3.90
2019-02-19T15:12:20.193Z,2.90
2019-02-19T15:15:00.543Z,5.07
2019-02-19T15:17:32.749Z,2.70
2019-02-19T15:20:07.044Z,4.17
2019-02-19T15:22:38.879Z,2.33
2019-02-19T15:25:25.996Z,2.00
2019-02-19T15:27:56.951Z,3.27
2019-02-19T15:30:34.448Z,5.67
2019-02-19T15:33:05.498Z,2.00
2019-02-19T15:35:52.951Z,2.63
2019-02-19T15:38:26.679Z,3.00
2019-02-19T15:40:57.708Z,3.43
2019-02-19T15:43:37.760Z,3.00
2019-02-19T15:46:09.016Z,4.80
2019-02-19T15:48:39.994Z,1.63
2019-02-19T15:51:18.915Z,1.57
2019-02-19T15:53:50.190Z,3.43
2019-02-19T15:56:33.879Z,5.50
2019-02-19T15:59:21.598Z,3.23
2019-02-19T16:01:54.238Z,4.00
2019-02-19T16:04:28.569Z,3.63
2019-02-19T16:07:02.881Z,3.50
2019-02-19T16:09:38.088Z,3.43
2019-02-19T16:12:18.722Z,3.03
2019-02-19T16:14:56.525Z,2.60
2019-02-19T16:17:38.395Z,2.27
2019-02-19T16:20:26.187Z,2.60
2019-02-19T16:23:06.705Z,4.00
2019-02-19T16:25:44.923Z,3.23
2019-02-19T16:28:18.989Z,2.83
2019-02-19T16:30:58.752Z,4.07
2019-02-19T16:33:49.351Z,5.27
2019-02-19T16:36:20.693Z,3.77
2019-02-19T16:38:51.890Z,4.20
2019-02-19T16:41:41.478Z,5.17
2019-02-19T16:44:29.174Z,5.70
2019-02-19T16:47:00.549Z,6.40
2019-02-19T16:49:37.278Z,5.00
2019-02-19T16:52:08.592Z,9.33
2019-02-19T16:54:42.845Z,5.57
2019-02-19T16:57:26.421Z,3.23
2019-02-19T17:00:00.597Z,6.10
2019-02-19T17:02:32.117Z,8.90
2019-02-19T17:05:09.299Z,3.10
2019-02-19T17:07:41.245Z,4.30
2019-02-19T17:10:15.890Z,5.17
2019-02-19T17:13:02.755Z,3.00
2019-02-19T17:15:43.297Z,6.43
2019-02-19T17:18:20.326Z,5.20
2019-02-19T17:21:07.733Z,5.70
2019-02-19T17:23:39.564Z,2.57
2019-02-19T17:26:10.909Z,8.57
2019-02-19T17:28:58.325Z,6.10
2019-02-19T17:31:29.309Z,7.27
2019-02-19T17:34:03.418Z,7.40
2019-02-19T17:36:41.880Z,7.30
2019-02-19T17:39:18.873Z,7.17
2019-02-19T17:41:49.709Z,3.93
2019-02-19T17:44:20.985Z,9.03
2019-02-19T17:46:51.913Z,5.30
2019-02-19T17:49:26.327Z,6.07
2019-02-19T17:51:57.632Z,7.93
2019-02-19T17:54:28.431Z,8.10
2019-02-19T17:57:05.628Z,5.03
2019-02-19T17:59:39.584Z,3.67
2019-02-19T18:02:10.478Z,4.63
2019-02-19T18:04:50.293Z,4.57
2019-02-19T18:07:21.450Z,8.50
2019-02-19T18:10:04.727Z,5.07
2019-02-19T18:12:38.549Z,5.10
2019-02-19T18:15:18.710Z,6.83
2019-02-19T18:18:02.460Z,5.73
2019-02-19T18:20:32.063Z,4.30
2019-02-19T18:23:01.652Z,6.10
2019-02-19T18:25:30.639Z,4.60
2019-02-19T18:28:00.015Z,4.80
2019-02-19T18:30:29.483Z,3.60
2019-02-19T18:32:59.247Z,5.20
2019-02-19T18:35:28.896Z,6.70
2019-02-19T18:37:57.985Z,6.00
2019-02-19T18:40:27.043Z,6.63
2019-02-19T18:42:56.101Z,10.07
2019-02-19T18:45:25.090Z,6.83
2019-02-19T18:47:54.962Z,8.27
2019-02-19T18:50:24.302Z,8.63
2019-02-19T18:52:53.777Z,4.53
2019-02-19T18:55:23.267Z,7.93
2019-02-19T18:57:53.271Z,4.63
2019-02-19T19:00:22.571Z,5.97
2019-02-19T19:02:52.101Z,5.27
2019-02-19T19:05:21.914Z,5.67
2019-02-19T19:07:50.785Z,5.47
2019-02-19T19:10:20.136Z,7.07
2019-02-19T19:12:50.128Z,5.70
2019-02-19T19:15:19.481Z,6.53
2019-02-19T19:17:48.737Z,7.10
2019-02-19T19:20:18.302Z,6.40
2019-02-19T19:22:48.533Z,4.83
2019-02-19T19:25:18.126Z,5.33
2019-02-19T19:27:47.760Z,5.13
2019-02-19T19:30:17.592Z,5.10
2019-02-19T19:32:47.724Z,5.63
2019-02-19T19:35:17.129Z,6.33
2019-02-19T19:37:47.016Z,6.90
2019-02-19T19:40:16.889Z,7.83
2019-02-19T19:42:46.523Z,6.00
2019-02-19T19:45:15.564Z,9.87
2019-02-19T19:47:44.988Z,8.90
2019-02-19T19:50:15.807Z,6.70
2019-02-19T19:52:46.872Z,10.80
2019-02-19T19:55:16.641Z,7.70
2019-02-19T19:57:46.428Z,6.90
2019-02-19T20:00:15.942Z,11.87
2019-02-19T20:02:45.228Z,8.60
2019-02-19T20:05:14.831Z,8.20
2019-02-19T20:07:44.786Z,6.50
2019-02-19T20:10:16.154Z,11.07
2019-02-19T20:12:45.949Z,7.40
2019-02-19T20:15:17.036Z,7.77
2019-02-19T20:17:46.996Z,9.00
2019-02-19T20:20:16.587Z,13.03
2019-02-19T20:22:45.893Z,7.00
2019-02-19T20:25:16.093Z,9.83
2019-02-19T20:27:45.436Z,13.40
2019-02-19T20:30:18.644Z,13.63
2019-02-19T20:32:47.654Z,13.63
2019-02-19T20:35:18.461Z,12.63
2019-02-19T20:37:53.646Z,13.00
2019-02-19T20:40:19.312Z,13.37
2019-02-19T20:42:48.588Z,8.27
2019-02-19T20:45:17.579Z,10.83
2019-02-19T20:47:47.989Z,11.30
2019-02-19T20:50:18.216Z,11.20
2019-02-19T20:52:48.382Z,11.40
2019-02-19T20:55:18.696Z,8.10
2019-02-19T20:57:48.355Z,10.50
2019-02-19T21:00:18.437Z,12.70
2019-02-19T21:02:48.061Z,11.50
2019-02-19T21:05:17.007Z,10.47
2019-02-19T21:07:46.248Z,9.57
2019-02-19T21:10:20.968Z,6.93
2019-02-19T21:12:49.931Z,6.13
2019-02-19T21:15:19.734Z,8.27
2019-02-19T21:17:49.516Z,5.50
2019-02-19T21:20:22.023Z,7.60
2019-02-19T21:22:51.816Z,9.83
2019-02-19T21:25:29.065Z,6.30
2019-02-19T21:27:52.533Z,5.73
2019-02-19T21:30:22.197Z,6.03
2019-02-19T21:32:52.462Z,9.20
2019-02-19T21:35:21.814Z,7.30
2019-02-19T21:37:51.805Z,9.80
2019-02-19T21:40:22.343Z,8.27
2019-02-19T21:42:52.121Z,6.80
2019-02-19T21:45:22.268Z,7.03
2019-02-19T21:47:51.817Z,10.33
2019-02-19T21:50:22.490Z,7.23
2019-02-19T21:52:51.979Z,6.90
2019-02-19T21:55:21.137Z,9.50
2019-02-19T21:57:50.219Z,10.03
2019-02-19T22:00:21.131Z,8.93
2019-02-19T22:02:50.258Z,9.43
2019-02-19T22:05:19.598Z,8.77
2019-02-19T22:07:49.434Z,7.13
2019-02-19T22:10:19.476Z,11.07
2019-02-19T22:12:48.621Z,6.97
2019-02-19T22:15:17.983Z,8.57
2019-02-19T22:17:47.619Z,7.33
2019-02-19T22:20:33.690Z,7.60
2019-02-19T22:23:03.300Z,10.57
2019-02-19T22:25:32.862Z,9.17
2019-02-19T22:28:02.046Z,9.90
2019-02-19T22:30:31.832Z,9.70
2019-02-19T22:33:01.104Z,11.73
2019-02-19T22:35:30.608Z,12.63
2019-02-19T22:38:00.831Z,6.53
2019-02-19T22:40:31.634Z,13.93
2019-02-19T22:43:01.003Z,15.13
2019-02-19T22:45:30.149Z,10.73
2019-02-19T22:48:00.018Z,14.10
2019-02-19T22:50:30.087Z,15.27
2019-02-19T22:52:59.801Z,13.73
2019-02-19T22:55:33.361Z,13.20
2019-02-19T22:58:03.209Z,14.00
2019-02-19T23:00:48.838Z,11.03
2019-02-19T23:03:19.531Z,10.80
2019-02-19T23:05:49.081Z,13.17
2019-02-19T23:08:19.016Z,9.53
2019-02-19T23:10:48.077Z,12.17
2019-02-19T23:13:18.595Z,12.93
2019-02-19T23:15:47.745Z,11.87
2019-02-19T23:18:17.190Z,8.63
2019-02-19T23:20:46.587Z,13.47
2019-02-19T23:23:17.337Z,11.30
2019-02-19T23:25:46.675Z,13.60
2019-02-19T23:28:16.135Z,8.50
2019-02-19T23:30:46.076Z,9.70
2019-02-19T23:33:15.804Z,8.53
2019-02-19T23:35:46.841Z,13.33
2019-02-19T23:38:16.039Z,14.97
2019-02-19T23:40:46.199Z,8.87
2019-02-19T23:43:16.865Z,13.23
2019-02-19T23:45:46.725Z,12.30
2019-02-19T23:48:15.593Z,12.07
2019-02-19T23:50:45.246Z,16.27
2019-02-19T23:53:14.149Z,12.93
2019-02-19T23:55:43.467Z,8.57
2019-02-19T23:58:12.977Z,11.90
